Flight Track Log - Related Links

Times and Time Zones

All times are in EDT time to prevent confusion due to time zone crossing. See the UAL1480 flight status page for this flight to view local times or setup timezone preferences in your user account.

Time Position Orientation Groundspeed Altitude Reporting Facility
EDT Latitude Longitude Course Direction KTS MPH feet Rate Location/Type
Sat 09:41:32 AM 40.6272 -74.2041 22° Northeast  Level FlightAware Approximate
Sat 09:41:37 AM 40.6667 -74.1833 179° South 166 191 1,200  Level New York TRACON
Sat 09:46:28 AM 40.3458 -74.1778 172° South 287 330 6,000 1,210 Climbing New York Center
Sat 09:47:29 AM 40.2669 -74.1631 181° South 282 325 8,300 2,824 Climbing New York Center
Sat 09:48:27 AM 40.1794 -74.1642 158° South 301 346 11,600 2,750 Climbing New York Center
Sat 09:49:29 AM 40.0911 -74.1164 107° East 322 371 13,800 2,350 Climbing New York Center
Sat 09:50:27 AM 40.0614 -73.9928 92° East 319 367 16,300 2,400 Climbing New York Center
Sat 09:51:29 AM 40.0583 -73.8681 108° East 348 400 18,600 2,331 Climbing New York Center
Sat 09:52:28 AM 40.0225 -73.7281 113° Southeast 371 427 21,000 2,132 Climbing New York Center
Sat 09:53:30 AM 39.9778 -73.5936 145° Southeast 389 448 22,900 958 Climbing New York Center
Sat 09:54:27 AM 39.8758 -73.5000 147° Southeast 406 467 22,900 359 Level New York Center
Sat 09:55:27 AM 39.7736 -73.4122 145° Southeast 421 484 23,600 1,350 Climbing New York Center
Sat 09:56:27 AM 39.6736 -73.3222 147° Southeast 434 499 25,600 1,835 Climbing New York Center
Sat 09:57:28 AM 39.5669 -73.2322 144° Southeast 445 512 27,300 1,587 Climbing New York Center
Sat 09:58:28 AM 39.4647 -73.1344 147° Southeast 457 526 28,800 1,041 Climbing New York Center
Sat 09:59:29 AM 39.3481 -73.0367 145° Southeast 476 548 29,400 942 Climbing New York Center
Sat 10:00:29 AM 39.2292 -72.9281 147° Southeast 502 578 30,700 1,424 Climbing New York Center
Sat 10:01:27 AM 39.1119 -72.8308 146° Southeast 513 590 32,200 1,513 Climbing New York Center
Sat 10:02:28 AM 38.9928 -72.7286 146° Southeast 513 590 33,700 893 Climbing New York Center
Sat 10:03:28 AM 38.8736 -72.6239 147° Southeast 521 600 34,000 150 Climbing New York Center
Sat 10:04:28 AM 38.7542 -72.5250 145° Southeast 521 600 34,000 496 Level New York Center
Sat 10:05:29 AM 38.6347 -72.4183 146° Southeast 516 594 35,000 492 Climbing New York Center
Sat 10:06:30 AM 38.5153 -72.3147 147° Southeast 516 594 35,000 -50 Level New York Center
Sat 10:07:30 AM 38.3956 -72.2142 148° Southeast 516 594 34,900  Descending New York Center
Sat 10:08:28 AM 38.2739 -72.1192 146° Southeast 522 601 35,000 50 Climbing New York Center
Sat 10:09:29 AM 38.1519 -72.0164 144° Southeast 522 601 35,000  Level New York Center
Sat 10:10:29 AM 38.0342 -71.9089 146° Southeast 522 601 35,000  Level New York Center
Sat 10:11:30 AM 37.9119 -71.8042 148° Southeast 517 595 35,000  Level New York Center
Sat 10:12:27 AM 37.7897 -71.7078 147° Southeast 522 601 35,000  Level New York Center
Sat 10:13:27 AM 37.6675 -71.6092 144° Southeast 522 601 35,000  Level New York Center
Sat 10:14:29 AM 37.5472 -71.4978 148° Southeast 522 601 35,000 -49 Level New York Center
Sat 10:15:30 AM 37.4208 -71.3969 159° South 528 608 34,900  Descending New York Center
Sat 10:16:27 AM 37.3167 -71.3464 334° Northwest 471 542 35,000 102 Climbing New York Center
Sat 10:16:29 AM 37.4833 -71.4500 155° Southeast 525 604 35,000 -98 Level New York Oceanic (ODAPS)
Sat 10:17:28 AM 37.1522 -71.2564 153° Southeast 526 605 34,900 -50 Descending New York Center
Sat 10:18:29 AM 37.0317 -71.1803 155° Southeast 509 586 34,900 Level New York Center
Sat 10:31:44 AM 35.7667 -70.4500 168° South 509 586 35,000 Climbing New York Oceanic (ODAPS)
Sat 11:06:26 AM 30.9000 -69.2333 168° South 492 566 35,000  Level New York Oceanic (ODAPS)
Sat 11:50:12 AM 25.4667 -68.0000 169° South 455 524 35,000  Level New York Oceanic (ODAPS)
Sat 11:59:55 AM 23.4000 -67.5667 168° South 460 529 35,000  Level San Juan Center
Sat 12:04:58 PM 22.7500 -67.4167 172° South 460 529 35,000  Level San Juan Center
Sat 12:05:58 PM 22.6333 -67.4000 167° South 460 529 35,000  Level San Juan Center
Sat 12:06:58 PM 22.5000 -67.3667 172° South 450 518 35,000  Level San Juan Center
Sat 12:07:59 PM 22.3833 -67.3500 167° South 450 518 35,000  Level San Juan Center
Sat 12:08:59 PM 22.2500 -67.3167 180° South 460 529 35,000  Level San Juan Center
Sat 12:09:59 PM 22.1333 -67.3167 360° North 460 529 35,000  Level San Juan Center
Sat 12:10:48 PM 22.2333 -67.3167 191° South 390 449 35,000  Level New York Oceanic (ODAPS)
Sat 12:13:00 PM 21.7500 -67.4167 188° South 450 518 35,000  Level San Juan Center
Sat 12:14:01 PM 21.6333 -67.4333 187° South 450 518 35,000  Level San Juan Center
Sat 12:15:01 PM 21.5000 -67.4500 165° South 450 518 35,000  Level San Juan Center
Sat 12:16:01 PM 21.3833 -67.4167 146° Southeast 460 529 35,000  Level San Juan Center
Sat 12:17:01 PM 21.2667 -67.3333 137° Southeast 480 552 35,000  Level San Juan Center
Sat 12:18:02 PM 21.1833 -67.2500 133° Southeast 470 541 35,000  Level San Juan Center
Sat 12:19:02 PM 21.0833 -67.1333 137° Southeast 470 541 35,000  Level San Juan Center
Sat 12:20:03 PM 20.9833 -67.0333 163° South 470 541 35,000  Level San Juan Center
Sat 12:21:03 PM 20.8833 -67.0000 155° Southeast 450 518 35,000  Level San Juan Center
Sat 12:22:03 PM 20.7500 -66.9333 142° Southeast 460 529 35,000  Level San Juan Center
Sat 12:23:03 PM 20.6500 -66.8500 146° Southeast 470 541 35,000  Level San Juan Center
Sat 12:24:04 PM 20.5333 -66.7667 142° Southeast 470 541 35,000  Level San Juan Center
Sat 12:25:05 PM 20.4333 -66.6833 142° Southeast 460 529 35,000  Level San Juan Center
Sat 12:26:05 PM 20.3333 -66.6000 146° Southeast 470 541 35,000  Level San Juan Center
Sat 12:27:05 PM 20.2167 -66.5167 148° Southeast 470 541 35,000  Level San Juan Center
Sat 12:28:05 PM 20.1167 -66.4500 146° Southeast 470 541 35,000 -50 Level San Juan Center
Sat 12:29:06 PM 20.0000 -66.3667 142° Southeast 470 541 34,900 -248 Descending San Juan Center
Sat 12:30:06 PM 19.9000 -66.2833 142° Southeast 460 529 34,500 -750 Descending San Juan Center
Sat 12:31:06 PM 19.8000 -66.2000 146° Southeast 470 541 33,400 -992 Descending San Juan Center
Sat 12:32:07 PM 19.6833 -66.1167 142° Southeast 470 541 32,500 -1,041 Descending San Juan Center
Sat 12:33:07 PM 19.5833 -66.0333 148° Southeast 470 541 31,300 -1,884 Descending San Juan Center
Sat 12:34:08 PM 19.4833 -65.9667 146° Southeast 460 529 28,700 -2,529 Descending San Juan Center
Sat 12:35:08 PM 19.3667 -65.8833 148° Southeast 450 518 26,200 -2,380 Descending San Juan Center
Sat 12:36:09 PM 19.2667 -65.8167 137° Southeast 440 506 23,900 -2,380 Descending San Juan Center
Sat 12:37:09 PM 19.1833 -65.7333 148° Southeast 420 483 21,400 -2,350 Descending San Juan Center
Sat 12:38:09 PM 19.0833 -65.6667 148° Southeast 400 460 19,200 -2,132 Descending San Juan Center
Sat 12:39:10 PM 18.9833 -65.6000 143° Southeast 380 437 17,100 -2,083 Descending San Juan Center
Sat 12:40:10 PM 18.9000 -65.5333 171° South 380 437 15,000 -1,950 Descending San Juan Center
Sat 12:41:10 PM 18.8000 -65.5167 169° South 360 414 13,200 -1,240 Descending San Juan Center
Sat 12:42:11 PM 18.7167 -65.5000 169° South 310 357 12,500 -1,033 Descending San Juan Center
Sat 12:43:12 PM 18.6333 -65.4833 159° South 300 345 11,100 -1,438 Descending San Juan Center
Sat 12:44:12 PM 18.5500 -65.4500 169° South 290 334 9,600 -1,550 Descending San Juan Center
Sat 12:45:12 PM 18.4667 -65.4333 167° South 280 322 8,000 -1,091 Descending San Juan Center
Sat 12:46:13 PM 18.4000 -65.4167 180° South 260 299 7,400 -645 Descending San Juan Center
Sat 12:47:13 PM 18.3500 -65.4167 125° Southeast 210 242 6,700 -900 Descending San Juan Center
Sat 12:48:13 PM 18.3167 -65.3667 90° East 210 242 5,600 -1,150 Descending San Juan Center
Sat 12:49:13 PM 18.3167 -65.3167 90° East 190 219 4,400 -1,140 Descending San Juan Center
Sat 12:50:14 PM 18.3167 -65.2667 90° East 180 207 3,300 -793 Descending San Juan Center
Sat 12:51:14 PM 18.3167 -65.2167 90° East 190 219 2,800 -248 Descending San Juan Center
Sat 12:52:15 PM 18.3167 -65.1500 90° East 180 207 2,800 -298 Level San Juan Center
Sat 12:53:15 PM 18.3167 -65.1000 71° East 190 219 2,200 -700 Descending San Juan Center
Sat 12:54:15 PM 18.3333 -65.0500 71° East 150 173 1,400 -800 Descending San Juan Center

Login

Don't have an account? Register now (free) for customized features, flight alerts, and more!